Time;durP1;ratioP1;P1;durP2;ratioP2;P2;SDS_P1;SDS_P2;PMS_P1;PMS_P2;Temp;Humidity;BMP_temperature;BMP_pressure;BME280_temperature;BME280_humidity;BME280_pressure;Samples;Min_cycle;Max_cycle;Signal;HPM_P1;HPM_P2
2022/07/21 00:00:29;;;;;;;5.72;3.95;;;20.20;15.80;;;;;;5020447;28;34567;-76
2022/07/21 00:02:56;;;;;;;5.85;4.18;;;20.20;15.80;;;;;;5104299;27;35904;-77
2022/07/21 00:05:22;;;;;;;4.25;3.85;;;20.20;15.90;;;;;;5123013;27;34122;-76
2022/07/21 00:07:49;;;;;;;6.47;4.90;;;20.20;16.00;;;;;;5020504;27;34080;-75
2022/07/21 00:10:16;;;;;;;4.82;3.95;;;20.20;16.00;;;;;;5088019;28;34173;-75
2022/07/21 00:12:42;;;;;;;4.40;4.00;;;20.20;16.00;;;;;;5020423;28;34370;-74
2022/07/21 00:15:09;;;;;;;4.85;4.20;;;20.10;16.10;;;;;;5088970;28;34157;-75
2022/07/21 00:17:35;;;;;;;4.85;4.35;;;20.10;16.10;;;;;;5032809;28;34530;-75
2022/07/21 00:20:02;;;;;;;6.28;4.63;;;20.10;16.20;;;;;;5114553;27;34562;-75
2022/07/21 00:22:28;;;;;;;4.85;4.05;;;20.10;16.30;;;;;;5105460;27;36610;-75
2022/07/21 00:24:54;;;;;;;4.47;3.65;;;20.00;16.30;;;;;;5108449;27;34375;-75
2022/07/21 00:27:20;;;;;;;4.20;3.80;;;20.00;16.40;;;;;;5039139;28;34236;-76
2022/07/21 00:29:46;;;;;;;5.10;3.83;;;19.90;16.30;;;;;;5067999;27;34422;-76
2022/07/21 00:32:12;;;;;;;5.68;3.88;;;19.90;16.30;;;;;;5122971;27;36047;-76
2022/07/21 00:34:38;;;;;;;4.82;4.00;;;19.90;16.30;;;;;;5109540;27;34304;-76
2022/07/21 00:37:03;;;;;;;4.97;4.10;;;19.90;16.40;;;;;;5027986;28;35115;-76
2022/07/21 00:39:29;;;;;;;4.25;3.60;;;19.90;16.40;;;;;;5108321;27;34439;-76
2022/07/21 00:41:55;;;;;;;5.70;3.90;;;19.90;16.40;;;;;;5022916;28;34513;-76
2022/07/21 00:44:23;;;;;;;5.32;4.20;;;19.80;16.30;;;;;;5074389;28;34185;-76
2022/07/21 00:46:50;;;;;;;5.30;4.35;;;19.80;16.40;;;;;;5109403;27;34141;-76
2022/07/21 00:49:16;;;;;;;5.15;4.32;;;19.80;16.40;;;;;;5091642;28;34505;-76
2022/07/21 00:51:42;;;;;;;4.72;4.20;;;19.80;16.40;;;;;;5096019;27;35751;-76
2022/07/21 00:54:09;;;;;;;4.28;3.75;;;19.80;16.50;;;;;;5091328;27;34146;-76
2022/07/21 00:56:35;;;;;;;8.23;4.43;;;19.80;16.50;;;;;;5023163;28;34231;-76
2022/07/21 00:59:01;;;;;;;4.72;4.22;;;19.80;16.50;;;;;;5074837;28;34164;-76
2022/07/21 01:01:28;;;;;;;5.53;4.43;;;19.80;16.60;;;;;;5021979;28;35030;-76
2022/07/21 01:03:53;;;;;;;5.85;4.15;;;19.80;16.70;;;;;;5033220;28;34211;-77
2022/07/21 01:06:20;;;;;;;7.38;4.30;;;19.80;16.70;;;;;;5102316;27;34209;-77
2022/07/21 01:08:46;;;;;;;4.53;3.95;;;19.80;16.70;;;;;;5091788;28;34120;-76
2022/07/21 01:11:12;;;;;;;5.63;4.20;;;19.80;16.80;;;;;;5022115;28;34117;-76
2022/07/21 01:13:41;;;;;;;5.30;4.38;;;19.70;16.80;;;;;;5108179;27;34118;-76
2022/07/21 01:16:08;;;;;;;5.65;4.38;;;19.70;16.80;;;;;;5026427;28;34267;-76
2022/07/21 01:18:34;;;;;;;5.40;4.30;;;19.80;16.90;;;;;;5125420;27;34600;-76
2022/07/21 01:21:06;;;;;;;5.20;4.50;;;19.80;16.90;;;;;;5108707;27;35469;-76
2022/07/21 01:23:33;;;;;;;4.78;4.28;;;19.80;17.10;;;;;;5091623;27;34188;-76
2022/07/21 01:25:59;;;;;;;5.82;4.75;;;19.70;17.00;;;;;;5099194;27;34315;-76
2022/07/21 01:28:25;;;;;;;5.10;4.50;;;19.80;17.50;;;;;;5136320;27;34307;-76
2022/07/21 01:30:51;;;;;;;5.90;4.65;;;19.70;17.10;;;;;;5108289;27;35962;-76
2022/07/21 01:33:17;;;;;;;5.35;4.70;;;19.70;17.10;;;;;;5090462;27;34142;-77
2022/07/21 01:35:44;;;;;;;6.65;4.75;;;19.70;17.00;;;;;;5093527;27;34169;-77
2022/07/21 01:41:28;;;;;;;5.50;4.50;;;19.70;17.10;;;;;;5126821;27;34524;-77
2022/07/21 01:43:40;;;;;;;6.85;5.70;;;19.70;17.50;;;;;;5041348;27;34176;-77
2022/07/21 01:46:12;;;;;;;5.88;4.80;;;19.70;17.00;;;;;;5042473;28;34332;-77
2022/07/21 01:48:42;;;;;;;9.02;5.05;;;19.60;17.40;;;;;;5033174;28;34045;-77
2022/07/21 01:51:09;;;;;;;5.25;4.75;;;19.60;17.60;;;;;;5021567;28;34360;-77
2022/07/21 01:53:35;;;;;;;7.43;4.78;;;19.60;17.00;;;;;;5022415;28;34421;-76
2022/07/21 01:56:00;;;;;;;6.03;5.40;;;19.50;17.00;;;;;;5090848;28;34244;-77
2022/07/21 01:58:26;;;;;;;6.38;4.15;;;19.50;17.00;;;;;;5107950;27;34156;-77
2022/07/21 02:00:52;;;;;;;6.10;4.85;;;19.50;17.10;;;;;;5090755;28;36045;-77
2022/07/21 02:03:18;;;;;;;6.72;5.13;;;19.40;17.00;;;;;;5037049;28;34135;-77
2022/07/21 02:05:44;;;;;;;8.80;5.55;;;19.40;17.10;;;;;;5125387;27;34622;-77
2022/07/21 02:08:10;;;;;;;8.48;5.85;;;19.40;17.10;;;;;;5125440;27;34358;-77
2022/07/21 02:10:36;;;;;;;7.90;5.72;;;19.40;17.10;;;;;;5107587;27;36216;-77
2022/07/21 02:13:03;;;;;;;6.55;5.10;;;19.40;17.20;;;;;;5124041;27;34316;-77
2022/07/21 02:15:30;;;;;;;6.53;5.30;;;19.40;17.20;;;;;;5022429;28;34073;-77
2022/07/21 02:17:57;;;;;;;6.63;5.15;;;19.50;17.20;;;;;;5107365;27;34104;-77
2022/07/21 02:20:23;;;;;;;6.63;5.10;;;19.50;17.30;;;;;;5021219;28;34726;-77
2022/07/21 02:22:51;;;;;;;7.57;5.40;;;19.50;17.30;;;;;;5124736;27;34140;-77
2022/07/21 02:25:17;;;;;;;6.72;5.50;;;19.50;17.50;;;;;;5124415;27;34180;-77
2022/07/21 02:27:45;;;;;;;7.05;5.78;;;19.50;17.40;;;;;;5124304;27;34289;-77
2022/07/21 02:30:12;;;;;;;7.90;5.22;;;19.50;17.40;;;;;;5107365;27;36563;-77
2022/07/21 02:32:39;;;;;;;6.15;5.22;;;19.60;17.50;;;;;;5124519;27;34070;-77
2022/07/21 02:35:05;;;;;;;6.35;4.95;;;19.50;17.40;;;;;;5124679;27;34371;-77
2022/07/21 02:37:32;;;;;;;7.38;5.72;;;19.50;17.40;;;;;;5124683;27;34313;-77
2022/07/21 02:39:58;;;;;;;5.53;4.68;;;19.50;17.40;;;;;;5021080;28;34185;-77
2022/07/21 02:42:24;;;;;;;6.85;5.35;;;19.50;17.40;;;;;;5021093;28;34085;-79
2022/07/21 02:44:49;;;;;;;6.80;5.78;;;19.50;17.50;;;;;;5124982;27;34236;-77
2022/07/21 02:47:15;;;;;;;6.68;5.18;;;19.60;17.60;;;;;;5090196;28;34112;-77
2022/07/21 02:49:41;;;;;;;7.32;5.32;;;19.60;17.60;;;;;;5124254;27;35853;-77
2022/07/21 02:52:07;;;;;;;8.15;5.65;;;19.60;17.60;;;;;;5123376;27;34109;-77
2022/07/21 02:54:36;;;;;;;7.32;5.88;;;19.60;17.60;;;;;;5030635;28;34146;-77
2022/07/21 02:57:02;;;;;;;6.05;5.10;;;19.60;17.70;;;;;;5125327;27;34177;-77
2022/07/21 02:59:28;;;;;;;8.80;6.10;;;19.60;17.70;;;;;;5060796;28;34303;-77
2022/07/21 03:01:54;;;;;;;6.97;5.38;;;19.60;17.80;;;;;;5077514;27;34298;-77
2022/07/21 03:04:20;;;;;;;7.22;6.13;;;19.60;17.80;;;;;;5127064;27;34222;-77
2022/07/21 03:06:46;;;;;;;6.22;5.53;;;19.60;17.80;;;;;;5144338;27;34434;-77
2022/07/21 03:09:12;;;;;;;7.20;5.72;;;19.60;17.80;;;;;;5161528;27;35506;-78
2022/07/21 03:11:38;;;;;;;7.25;5.72;;;19.70;18.00;;;;;;5116296;27;34161;-77
2022/07/21 03:14:04;;;;;;;6.40;5.55;;;19.70;17.90;;;;;;5144473;27;34122;-77
2022/07/21 03:16:30;;;;;;;6.57;5.80;;;19.70;17.90;;;;;;5103103;27;34073;-77
2022/07/21 03:18:56;;;;;;;9.15;6.00;;;19.70;17.90;;;;;;5108316;27;34243;-77
2022/07/21 03:21:22;;;;;;;7.15;5.72;;;19.70;18.00;;;;;;5123527;27;34581;-77
2022/07/21 03:23:48;;;;;;;7.03;5.32;;;19.70;18.00;;;;;;5123555;27;34469;-77
2022/07/21 03:26:15;;;;;;;7.32;5.88;;;19.70;18.00;;;;;;5102962;27;34443;-77
2022/07/21 03:28:43;;;;;;;6.97;5.35;;;19.70;18.20;;;;;;5037818;28;34836;-77
2022/07/21 03:31:09;;;;;;;7.25;5.75;;;19.80;18.20;;;;;;5123676;27;34097;-77
2022/07/21 03:33:35;;;;;;;7.75;6.22;;;19.80;18.10;;;;;;5132516;27;34143;-77
2022/07/21 03:36:01;;;;;;;6.50;5.90;;;19.70;18.20;;;;;;5040884;28;34145;-77
2022/07/21 03:38:28;;;;;;;10.35;6.93;;;19.80;18.20;;;;;;5105093;27;35299;-77
2022/07/21 03:40:54;;;;;;;6.93;6.22;;;19.80;18.30;;;;;;5126038;27;34309;-77
2022/07/21 03:43:20;;;;;;;7.43;5.80;;;19.70;18.30;;;;;;5116307;27;34225;-77
2022/07/21 03:45:46;;;;;;;9.55;6.25;;;19.70;18.30;;;;;;5092656;27;34366;-77
2022/07/21 03:48:12;;;;;;;8.27;6.53;;;19.70;18.30;;;;;;5143514;27;35487;-77
2022/07/21 03:50:42;;;;;;;7.90;6.30;;;19.70;18.40;;;;;;5143806;27;34168;-77
2022/07/21 03:53:08;;;;;;;9.20;6.07;;;19.70;18.50;;;;;;5040392;27;34341;-77
2022/07/21 03:55:35;;;;;;;10.10;6.20;;;19.70;18.40;;;;;;5121879;27;34357;-77
2022/07/21 03:58:03;;;;;;;8.88;6.88;;;19.70;19.00;;;;;;5021944;27;35801;-77
2022/07/21 04:00:36;;;;;;;8.90;6.47;;;19.70;18.70;;;;;;5106185;27;34117;-77
2022/07/21 04:03:03;;;;;;;9.93;6.35;;;19.70;19.30;;;;;;5124583;27;34146;-77
2022/07/21 04:05:30;;;;;;;9.07;6.90;;;19.70;18.80;;;;;;5127131;27;34644;-77
2022/07/21 04:07:56;;;;;;;7.68;6.00;;;19.70;18.90;;;;;;5126861;27;35800;-77
2022/07/21 04:10:26;;;;;;;12.02;7.07;;;19.70;18.90;;;;;;5091681;27;34137;-77
2022/07/21 04:12:53;;;;;;;9.02;6.97;;;19.60;19.10;;;;;;5075454;27;34198;-77
2022/07/21 04:15:19;;;;;;;9.40;7.32;;;19.70;19.10;;;;;;5091835;28;34038;-77
2022/07/21 04:17:47;;;;;;;13.48;7.03;;;19.70;19.20;;;;;;5023400;28;34242;-77
2022/07/21 04:20:13;;;;;;;8.00;6.55;;;19.70;19.20;;;;;;5106054;27;34323;-77
2022/07/21 04:22:40;;;;;;;9.82;7.15;;;19.70;19.20;;;;;;5092220;27;34329;-77
2022/07/21 04:25:07;;;;;;;9.68;7.20;;;19.70;19.20;;;;;;5092128;28;34329;-77
2022/07/21 04:27:34;;;;;;;10.65;7.45;;;19.80;19.10;;;;;;5126117;27;36187;-77
2022/07/21 04:30:00;;;;;;;8.50;6.90;;;19.80;19.10;;;;;;5108828;27;34362;-77
2022/07/21 04:32:26;;;;;;;8.52;6.95;;;19.80;19.10;;;;;;5108949;27;34527;-77
2022/07/21 04:34:52;;;;;;;12.07;7.47;;;19.70;19.10;;;;;;5023455;28;34414;-77
2022/07/21 04:37:18;;;;;;;9.27;7.03;;;19.70;19.10;;;;;;5143919;27;34284;-77
2022/07/21 04:39:44;;;;;;;10.18;7.68;;;19.70;19.10;;;;;;5146508;27;34276;-77
2022/07/21 04:42:10;;;;;;;9.68;7.47;;;19.70;19.10;;;;;;5147278;27;34027;-77
2022/07/21 04:44:36;;;;;;;8.57;6.85;;;19.70;19.20;;;;;;5147147;27;34473;-77
2022/07/21 04:47:02;;;;;;;10.30;7.38;;;19.70;19.20;;;;;;5134644;27;36282;-77
2022/07/21 04:49:28;;;;;;;11.82;7.78;;;19.70;19.20;;;;;;5089985;27;34267;-77
2022/07/21 04:51:54;;;;;;;8.75;7.13;;;19.70;19.30;;;;;;5062837;28;34086;-77
2022/07/21 04:54:20;;;;;;;11.18;7.32;;;19.70;19.30;;;;;;5132971;27;34185;-77
2022/07/21 04:56:45;;;;;;;12.40;7.20;;;19.70;19.30;;;;;;5125717;27;36579;-77
2022/07/21 04:59:12;;;;;;;9.43;7.57;;;19.70;19.30;;;;;;5124791;27;34171;-77
2022/07/21 05:01:38;;;;;;;9.65;7.57;;;19.70;19.40;;;;;;5026101;27;34258;-78
2022/07/21 05:04:05;;;;;;;12.57;7.93;;;19.70;19.40;;;;;;5091793;28;34543;-77
2022/07/21 05:06:32;;;;;;;11.23;7.93;;;19.70;19.50;;;;;;5075702;27;35891;-77
2022/07/21 05:08:58;;;;;;;9.85;8.18;;;19.70;19.50;;;;;;5091194;28;34177;-77
2022/07/21 05:11:25;;;;;;;11.30;8.55;;;19.80;19.60;;;;;;5106999;27;35421;-77
2022/07/21 05:13:51;;;;;;;11.35;8.75;;;19.80;19.40;;;;;;5041784;27;34278;-77
2022/07/21 05:16:17;;;;;;;9.88;7.88;;;19.90;19.40;;;;;;5041842;28;34507;-77
2022/07/21 05:18:43;;;;;;;14.35;8.45;;;19.90;19.40;;;;;;5111701;27;34377;-77
2022/07/21 05:21:09;;;;;;;12.05;8.30;;;20.00;19.30;;;;;;5104149;27;34274;-77
2022/07/21 05:23:34;;;;;;;12.30;8.63;;;20.10;19.40;;;;;;5107937;27;34151;-77
2022/07/21 05:26:00;;;;;;;12.95;8.48;;;20.10;19.30;;;;;;5091194;28;35522;-77
2022/07/21 05:28:28;;;;;;;10.23;8.02;;;20.10;19.30;;;;;;5109484;27;34369;-77
2022/07/21 05:30:54;;;;;;;10.73;8.02;;;20.10;19.30;;;;;;5110538;27;34064;-77
2022/07/21 05:33:20;;;;;;;10.98;8.13;;;20.20;19.30;;;;;;5022668;28;34075;-77
2022/07/21 05:35:46;;;;;;;11.68;8.85;;;20.30;19.40;;;;;;5091008;28;35664;-77
2022/07/21 05:38:12;;;;;;;9.18;8.07;;;20.40;19.30;;;;;;5031631;27;34077;-77
2022/07/21 05:40:38;;;;;;;12.00;8.63;;;20.50;19.20;;;;;;5042063;27;34123;-77
2022/07/21 05:43:04;;;;;;;9.80;7.90;;;20.60;19.10;;;;;;5144866;27;34239;-77
2022/07/21 05:45:30;;;;;;;10.75;7.65;;;20.70;19.00;;;;;;5030642;28;34893;-77
2022/07/21 05:47:56;;;;;;;11.65;7.88;;;20.80;19.00;;;;;;5125391;27;34146;-77
2022/07/21 05:50:22;;;;;;;12.88;7.70;;;20.80;18.80;;;;;;5125111;27;34217;-77
2022/07/21 05:52:48;;;;;;;9.23;7.35;;;20.80;18.80;;;;;;5141954;27;34626;-77
2022/07/21 05:55:14;;;;;;;9.15;7.72;;;20.80;18.70;;;;;;5144568;27;36767;-77
2022/07/21 05:57:40;;;;;;;10.65;7.28;;;20.80;18.70;;;;;;5125404;27;34261;-78
2022/07/21 06:00:07;;;;;;;9.40;6.72;;;20.70;18.70;;;;;;5125986;27;34197;-77
2022/07/21 06:02:32;;;;;;;10.45;7.22;;;20.70;18.60;;;;;;5118540;27;34145;-77
2022/07/21 06:04:59;;;;;;;10.63;6.78;;;20.80;18.50;;;;;;5077221;27;35645;-77
2022/07/21 06:07:25;;;;;;;8.93;6.82;;;20.90;18.30;;;;;;5036707;27;34052;-77
2022/07/21 06:09:51;;;;;;;9.20;7.00;;;21.00;18.00;;;;;;5044429;28;34246;-77
2022/07/21 06:12:17;;;;;;;7.45;6.65;;;21.40;17.70;;;;;;5110995;27;34290;-77
2022/07/21 06:14:43;;;;;;;6.43;5.45;;;21.70;17.10;;;;;;5093416;27;35648;-77
2022/07/21 06:17:09;;;;;;;8.18;6.38;;;22.10;16.40;;;;;;5103838;27;34181;-77
2022/07/21 06:19:35;;;;;;;8.50;6.50;;;22.40;16.00;;;;;;5100776;27;34285;-77
2022/07/21 06:24:46;;;;;;;5.45;4.93;;;22.80;15.50;;;;;;5041308;28;34139;-77
2022/07/21 06:27:12;;;;;;;8.15;5.15;;;22.80;15.10;;;;;;5112938;27;34308;-79
2022/07/21 06:29:38;;;;;;;6.20;4.60;;;22.70;15.00;;;;;;5084190;27;34174;-77
2022/07/21 06:32:05;;;;;;;5.85;5.25;;;22.70;15.00;;;;;;5082919;27;34262;-79
2022/07/21 06:34:31;;;;;;;7.80;5.13;;;22.70;14.90;;;;;;5063102;28;34356;-78
2022/07/21 06:36:57;;;;;;;5.55;4.85;;;22.80;14.90;;;;;;5071023;27;33784;-78
2022/07/21 06:39:23;;;;;;;4.72;4.22;;;22.80;14.90;;;;;;5031310;27;34302;-79
2022/07/21 06:41:49;;;;;;;6.28;4.18;;;22.90;14.60;;;;;;5117931;27;34099;-77
2022/07/21 06:44:15;;;;;;;6.10;4.43;;;23.00;14.30;;;;;;5127922;27;35762;-78
2022/07/21 06:46:41;;;;;;;5.95;4.35;;;23.20;13.90;;;;;;5117398;27;34139;-78
2022/07/21 06:49:07;;;;;;;5.63;4.55;;;23.70;13.30;;;;;;5127033;27;34301;-78
2022/07/21 06:51:33;;;;;;;6.28;4.45;;;24.40;12.30;;;;;;5048905;28;34083;-77
2022/07/21 06:53:59;;;;;;;5.85;4.10;;;25.00;11.70;;;;;;5115939;27;35803;-78
2022/07/21 06:56:25;;;;;;;4.32;3.80;;;25.30;11.00;;;;;;5125229;27;34208;-78
2022/07/21 06:58:50;;;;;;;5.43;4.13;;;25.20;10.70;;;;;;5114359;27;34268;-78
2022/07/21 07:01:18;;;;;;;5.43;4.30;;;25.40;10.20;;;;;;5038172;27;34072;-78
2022/07/21 07:03:44;;;;;;;5.10;4.30;;;25.70;10.10;;;;;;5070171;27;36278;-77
2022/07/21 07:06:11;;;;;;;6.05;3.97;;;25.80;10.10;;;;;;5060972;27;34091;-77
2022/07/21 07:08:38;;;;;;;7.28;3.83;;;25.70;9.50;;;;;;5126623;27;34200;-77
2022/07/21 07:11:05;;;;;;;4.82;3.80;;;25.60;9.50;;;;;;5127888;27;34142;-77
2022/07/21 07:13:30;;;;;;;5.55;3.90;;;25.20;10.00;;;;;;5095395;27;35519;-78
2022/07/21 07:15:56;;;;;;;5.68;3.85;;;24.90;10.40;;;;;;5083842;27;34577;-77
2022/07/21 07:18:23;;;;;;;4.80;3.85;;;24.80;10.50;;;;;;5078727;27;34156;-77
2022/07/21 07:20:50;;;;;;;4.50;3.50;;;24.80;10.50;;;;;;5060798;28;34181;-77
2022/07/21 07:23:16;;;;;;;4.13;3.53;;;24.70;10.70;;;;;;5113415;27;35588;-78
2022/07/21 07:25:43;;;;;;;4.43;3.22;;;24.50;10.90;;;;;;5106488;27;34321;-77
2022/07/21 07:28:09;;;;;;;4.88;3.28;;;24.30;10.70;;;;;;5111988;27;34320;-77
2022/07/21 07:30:35;;;;;;;6.45;3.80;;;23.90;11.20;;;;;;5121653;27;34158;-77
2022/07/21 07:33:01;;;;;;;3.70;3.33;;;23.70;11.30;;;;;;5111099;27;34416;-77
2022/07/21 07:35:28;;;;;;;5.30;3.15;;;23.60;11.50;;;;;;5044432;28;34130;-77
2022/07/21 07:37:53;;;;;;;3.35;2.80;;;23.50;11.70;;;;;;5061726;27;34352;-77
2022/07/21 07:40:21;;;;;;;7.00;3.10;;;23.40;11.70;;;;;;5149266;27;34437;-77
2022/07/21 07:42:47;;;;;;;3.10;2.85;;;23.40;11.80;;;;;;5067910;27;35690;-77
2022/07/21 07:45:15;;;;;;;7.38;3.88;;;23.50;11.70;;;;;;5083439;27;34338;-77
2022/07/21 07:47:41;;;;;;;4.85;3.60;;;23.80;11.40;;;;;;5075263;27;34235;-77
2022/07/21 07:50:10;;;;;;;4.03;3.63;;;24.10;11.20;;;;;;5113370;27;34669;-78
2022/07/21 07:52:38;;;;;;;4.57;3.08;;;24.60;10.80;;;;;;5056938;27;36647;-79
2022/07/21 07:55:07;;;;;;;3.92;3.30;;;25.20;9.70;;;;;;5074809;27;35306;-78
2022/07/21 07:57:34;;;;;;;4.07;3.13;;;25.80;8.90;;;;;;5041492;28;34178;-78
2022/07/21 08:00:02;;;;;;;5.38;3.17;;;26.30;8.70;;;;;;5054389;27;34457;-78
2022/07/21 08:02:28;;;;;;;3.70;3.30;;;26.50;8.30;;;;;;5089384;27;36098;-79
2022/07/21 08:04:55;;;;;;;4.65;3.20;;;26.40;8.20;;;;;;5042121;27;34169;-78
2022/07/21 08:07:21;;;;;;;5.45;3.63;;;26.30;8.20;;;;;;5090306;27;34412;-78
2022/07/21 08:09:47;;;;;;;4.60;3.65;;;26.00;8.30;;;;;;5041689;28;34536;-78
2022/07/21 08:12:12;;;;;;;6.63;4.18;;;25.80;8.30;;;;;;5099743;27;36306;-77
2022/07/21 08:14:38;;;;;;;4.13;3.72;;;25.50;8.70;;;;;;5059200;27;34163;-78
2022/07/21 08:17:05;;;;;;;4.55;4.07;;;25.30;9.00;;;;;;5044040;28;34357;-79
2022/07/21 08:19:31;;;;;;;4.80;4.20;;;25.10;9.20;;;;;;5103971;27;34032;-78
2022/07/21 08:21:56;;;;;;;4.38;3.92;;;25.10;9.40;;;;;;5093457;27;35703;-79
2022/07/21 08:24:22;;;;;;;5.22;3.78;;;25.10;9.60;;;;;;5038614;28;34229;-79
2022/07/21 08:26:48;;;;;;;5.22;4.10;;;25.10;9.70;;;;;;5107932;27;34552;-77
2022/07/21 08:29:14;;;;;;;7.40;4.47;;;25.00;9.50;;;;;;5041834;28;34496;-78
2022/07/21 08:31:40;;;;;;;5.72;3.80;;;24.80;9.50;;;;;;5076318;27;35538;-78
2022/07/21 08:34:06;;;;;;;6.82;4.65;;;24.60;9.60;;;;;;5104749;27;34435;-78
2022/07/21 08:36:33;;;;;;;7.55;4.35;;;24.50;9.70;;;;;;5139489;27;34263;-78
2022/07/21 08:38:58;;;;;;;5.63;3.90;;;24.30;9.90;;;;;;5141652;27;34029;-77
2022/07/21 08:41:25;;;;;;;8.43;4.18;;;24.10;9.90;;;;;;5043198;27;34084;-79
2022/07/21 08:43:51;;;;;;;8.07;4.38;;;23.90;10.10;;;;;;5140497;27;34284;-78
2022/07/21 08:46:21;;;;;;;9.35;4.68;;;23.70;10.20;;;;;;5115282;27;34253;-79
2022/07/21 08:48:49;;;;;;;5.13;4.47;;;23.80;10.30;;;;;;5088240;27;34457;-78
2022/07/21 08:51:16;;;;;;;5.43;4.15;;;23.80;10.70;;;;;;5027518;27;34388;-78
2022/07/21 08:53:46;;;;;;;5.20;4.22;;;24.20;9.70;;;;;;5114012;27;34353;-79
2022/07/21 08:56:13;;;;;;;6.28;4.70;;;24.50;9.00;;;;;;5148137;27;34173;-81
2022/07/21 08:58:39;;;;;;;6.30;4.60;;;25.10;8.60;;;;;;5056554;27;34243;-79
2022/07/21 09:01:05;;;;;;;7.97;4.82;;;25.30;8.00;;;;;;5145453;27;35548;-79
2022/07/21 09:03:32;;;;;;;7.25;4.93;;;25.60;7.70;;;;;;5122450;27;33746;-77
2022/07/21 09:06:15;;;;;;;6.15;4.88;;;25.70;7.30;;;;;;5150002;27;34389;-79
2022/07/21 09:08:45;;;;;;;7.35;5.28;;;25.70;5.70;;;;;;5135422;27;34262;-77
2022/07/21 09:11:18;;;;;;;6.35;5.03;;;25.60;7.10;;;;;;5095738;27;35937;-78
2022/07/21 09:13:46;;;;;;;7.57;5.30;;;25.60;6.70;;;;;;5087136;27;34206;-80
2022/07/21 09:16:12;;;;;;;6.50;4.88;;;25.50;7.20;;;;;;5086921;27;34294;-78
2022/07/21 09:18:54;;;;;;;5.57;4.65;;;25.40;7.40;;;;;;5098148;27;34081;-78
2022/07/21 09:21:20;;;;;;;6.43;4.70;;;25.30;6.40;;;;;;5103643;27;36517;-77
2022/07/21 09:23:46;;;;;;;6.40;4.97;;;25.20;7.60;;;;;;5118718;27;34484;-78
2022/07/21 09:26:12;;;;;;;5.65;4.95;;;25.20;7.80;;;;;;5039870;27;34324;-78
2022/07/21 09:28:41;;;;;;;6.03;4.80;;;25.00;7.70;;;;;;5124005;27;34266;-79
2022/07/21 09:31:11;;;;;;;7.22;4.90;;;25.20;7.70;;;;;;5109969;27;35796;-80
2022/07/21 09:33:45;;;;;;;6.90;5.30;;;25.30;8.00;;;;;;5118992;27;34432;-79
2022/07/21 09:36:14;;;;;;;6.30;5.07;;;25.40;7.40;;;;;;5145809;27;34453;-78
2022/07/21 09:38:43;;;;;;;7.47;5.05;;;25.40;7.40;;;;;;5137703;27;35391;-79
2022/07/21 09:41:15;;;;;;;7.18;4.95;;;25.30;7.20;;;;;;5045762;27;34242;-78
2022/07/21 09:43:51;;;;;;;7.88;5.25;;;25.20;6.50;;;;;;5103134;27;34230;-79
2022/07/21 09:46:28;;;;;;;7.40;5.20;;;25.30;6.70;;;;;;5091748;27;34524;-78
2022/07/21 09:48:56;;;;;;;7.25;5.32;;;25.30;6.60;;;;;;5143310;27;34399;-79
2022/07/21 09:51:26;;;;;;;6.65;5.18;;;25.20;7.10;;;;;;5139821;27;35747;-77
2022/07/21 09:54:02;;;;;;;8.68;5.93;;;25.10;6.70;;;;;;5122170;27;34105;-78
2022/07/21 09:56:31;;;;;;;9.27;5.65;;;24.90;7.10;;;;;;5092251;27;34133;-78
2022/07/21 09:58:58;;;;;;;7.57;5.70;;;24.80;7.30;;;;;;5106904;27;34337;-78
2022/07/21 10:01:27;;;;;;;6.43;5.13;;;24.80;7.30;;;;;;5133347;27;35892;-78
2022/07/21 10:03:54;;;;;;;8.25;5.75;;;24.90;7.00;;;;;;5106653;27;34213;-77
2022/07/21 10:06:25;;;;;;;8.60;6.22;;;25.20;6.60;;;;;;5094936;27;34304;-77
2022/07/21 10:08:52;;;;;;;6.50;5.25;;;25.50;6.40;;;;;;5113069;27;34608;-78
2022/07/21 10:11:18;;;;;;;10.32;5.60;;;26.00;6.00;;;;;;5117068;27;35352;-78
2022/07/21 10:13:44;;;;;;;7.43;5.95;;;26.50;5.50;;;;;;5138035;27;34428;-80
2022/07/21 10:16:12;;;;;;;9.18;6.00;;;26.60;5.00;;;;;;5106815;27;34441;-79
2022/07/21 10:19:00;;;;;;;6.50;5.82;;;26.40;3.70;;;;;;5037492;27;33802;-77
2022/07/21 10:21:57;;;;;;;6.05;5.45;;;26.20;3.90;;;;;;5118749;27;36383;-78
2022/07/21 10:24:26;;;;;;;8.10;6.07;;;25.90;2.90;;;;;;5052909;27;34298;-76
2022/07/21 10:27:16;;;;;;;6.88;5.78;;;25.70;5.20;;;;;;5102850;27;34283;-75
2022/07/21 10:30:00;;;;;;;6.57;5.82;;;25.60;5.20;;;;;;5129008;27;34065;-75
2022/07/21 10:32:31;;;;;;;12.77;6.35;;;25.50;4.20;;;;;;5140307;27;35780;-75
2022/07/21 10:35:00;;;;;;;6.47;5.53;;;25.60;4.80;;;;;;5133961;27;34143;-77
2022/07/21 10:37:44;;;;;;;6.68;5.10;;;25.80;4.80;;;;;;5106089;27;34258;-76
2022/07/21 10:40:40;;;;;;;8.13;6.15;;;26.00;4.90;;;;;;5123172;27;34024;-76
2022/07/21 10:43:42;;;;;;;7.68;5.68;;;26.20;4.40;;;;;;5148626;27;36799;-78
2022/07/21 10:46:33;;;;;;;6.28;5.28;;;26.20;4.80;;;;;;5109488;27;34571;-77
2022/07/21 10:48:59;;;;;;;6.60;5.22;;;26.10;3.60;;;;;;5081534;27;34483;-75
2022/07/21 10:51:25;;;;;;;7.80;5.50;;;26.00;5.00;;;;;;5088963;27;34322;-76
2022/07/21 10:54:19;;;;;;;7.60;5.13;;;26.10;4.90;;;;;;5101407;27;35496;-76
2022/07/21 10:56:45;;;;;;;9.43;5.53;;;26.30;4.20;;;;;;5108068;27;35505;-77
2022/07/21 10:59:11;;;;;;;7.35;5.10;;;26.40;4.50;;;;;;5085028;27;34316;-76
2022/07/21 11:01:39;;;;;;;6.78;4.60;;;26.60;4.30;;;;;;5095047;27;34773;-82
2022/07/21 11:04:17;;;;;;;5.75;4.63;;;26.60;3.90;;;;;;5035303;28;34237;-77
2022/07/21 11:06:44;;;;;;;5.93;4.70;;;26.40;3.40;;;;;;5121486;27;34447;-78
2022/07/21 11:09:13;;;;;;;5.20;4.70;;;26.30;4.10;;;;;;5137259;27;34341;-81
2022/07/21 11:11:58;;;;;;;5.03;4.53;;;26.20;3.50;;;;;;5102795;27;34790;-76
2022/07/21 11:14:41;;;;;;;8.50;4.82;;;26.10;3.50;;;;;;5111063;27;35649;-76
2022/07/21 11:17:09;;;;;;;5.88;4.93;;;26.00;4.00;;;;;;5078058;27;34396;-77
2022/07/21 11:19:49;;;;;;;7.00;4.57;;;25.90;4.30;;;;;;5137622;27;34394;-79
2022/07/21 11:22:18;;;;;;;5.88;5.28;;;26.00;4.10;;;;;;5136284;27;34309;-76
2022/07/21 11:24:48;;;;;;;6.90;5.18;;;26.00;4.40;;;;;;5098121;27;35101;-76
2022/07/21 11:27:16;;;;;;;5.32;4.82;;;26.00;3.70;;;;;;5145418;27;34322;-77
2022/07/21 11:29:46;;;;;;;7.03;4.75;;;26.00;4.20;;;;;;5088419;27;34133;-77
2022/07/21 11:32:13;;;;;;;6.72;4.63;;;25.90;3.60;;;;;;5097290;27;34160;-77
2022/07/21 11:34:46;;;;;;;6.93;5.35;;;26.00;4.50;;;;;;5096759;27;35971;-76
2022/07/21 11:37:15;;;;;;;5.05;4.55;;;26.00;4.20;;;;;;5090282;27;34199;-76
2022/07/21 11:39:41;;;;;;;6.72;4.95;;;26.20;4.40;;;;;;5127065;27;34260;-79
2022/07/21 11:42:11;;;;;;;6.50;4.93;;;26.30;4.30;;;;;;5120685;27;34397;-76
2022/07/21 11:44:38;;;;;;;7.75;5.28;;;26.60;4.20;;;;;;5112705;27;36041;-79
2022/07/21 11:47:06;;;;;;;6.38;4.88;;;26.80;3.80;;;;;;5110327;27;34186;-77
2022/07/21 11:49:33;;;;;;;4.78;4.30;;;26.90;3.50;;;;;;5122351;27;34335;-76
2022/07/21 11:52:03;;;;;;;5.50;4.18;;;26.80;3.20;;;;;;5141102;27;34218;-77
2022/07/21 11:54:35;;;;;;;4.97;4.20;;;26.80;2.90;;;;;;5080273;27;35924;-78
2022/07/21 11:57:04;;;;;;;6.38;4.30;;;27.00;2.10;;;;;;5093089;27;34298;-75
2022/07/21 11:59:31;;;;;;;5.82;4.70;;;27.20;2.90;;;;;;5109929;27;34365;-78
2022/07/21 12:02:06;;;;;;;5.80;4.45;;;27.30;2.70;;;;;;5107579;27;34238;-76
2022/07/21 12:04:46;;;;;;;7.10;5.10;;;27.60;1.90;;;;;;5091113;28;36769;-78
2022/07/21 12:07:19;;;;;;;6.45;5.10;;;27.90;1.10;;;;;;5093775;27;34210;-79
2022/07/21 12:09:49;;;;;;;7.82;5.13;;;28.20;1.80;;;;;;5109329;27;34253;-76
2022/07/21 12:12:26;;;;;;;6.65;4.47;;;28.40;1.40;;;;;;5074341;27;34388;-77
2022/07/21 12:14:52;;;;;;;5.82;4.30;;;28.50;1.30;;;;;;5127899;27;35892;-76
2022/07/21 12:17:37;;;;;;;7.20;4.07;;;28.70;1.00;;;;;;5129341;27;34329;-77
2022/07/21 12:20:06;;;;;;;8.80;4.47;;;28.80;1.00;;;;;;5059796;27;34199;-76
2022/07/21 12:22:34;;;;;;;5.60;4.57;;;28.60;1.00;;;;;;5162803;27;34347;-77
2022/07/21 12:25:00;;;;;;;6.47;4.35;;;28.50;1.00;;;;;;5097304;27;36376;-76
2022/07/21 12:27:27;;;;;;;4.60;4.20;;;28.40;1.00;;;;;;5044810;27;34064;-77
2022/07/21 12:29:53;;;;;;;5.28;4.25;;;28.40;1.00;;;;;;5038671;28;34211;-76
2022/07/21 12:32:44;;;;;;;6.10;4.13;;;28.40;1.00;;;;;;5097101;27;34187;-77
2022/07/21 12:35:21;;;;;;;4.40;4.00;;;28.30;1.00;;;;;;5089558;27;35969;-76
2022/07/21 12:37:58;;;;;;;5.97;4.00;;;28.20;1.00;;;;;;5129464;27;34398;-76
2022/07/21 12:40:25;;;;;;;4.97;3.85;;;28.10;1.00;;;;;;5024687;28;34283;-77
2022/07/21 12:43:02;;;;;;;5.40;4.22;;;28.00;1.00;;;;;;5110667;27;34040;-77
2022/07/21 12:45:28;;;;;;;5.57;4.03;;;28.10;1.00;;;;;;5149593;27;35972;-76
2022/07/21 12:48:10;;;;;;;8.43;4.22;;;28.00;1.00;;;;;;5116465;27;34063;-78
2022/07/21 12:50:39;;;;;;;5.50;3.72;;;28.00;1.00;;;;;;5111757;27;34095;-77
2022/07/21 12:53:09;;;;;;;4.30;3.90;;;28.00;1.00;;;;;;5095590;27;34313;-76
2022/07/21 12:55:36;;;;;;;5.25;4.00;;;28.10;1.00;;;;;;5141274;27;36889;-79
2022/07/21 12:58:03;;;;;;;5.45;4.00;;;28.20;1.00;;;;;;5141805;27;34471;-77
2022/07/21 13:00:29;;;;;;;4.85;3.70;;;28.10;1.00;;;;;;5147007;27;34153;-78